PWSweather.com
Personal Weather Stations
Station Observations
BLACKWELL
Blackwell, AlfretonGB DE55

BlackwellAlfretonGB DE55

Lat: 53.12076, Lon: -1.354978

Elevation: 410

Station Type: Vantage Pro

High Low Average
Temperature 53.2°F11.8°C 42.6°F5.9°C 48.3°F9.1°C
Dew Point 50.7°F10.4°C 39.9°F4.4°C 46.6°F8.1°C
Winds 4.0 mph 6.4 kmh Calm Calm 2.0 mph SSW3.2 kmh SSW
Wind Gusts 12.0 mph19.3 kmh 2.0 mph3.2 kmh 8.0 mph12.9 kmh
Humidity 96% 84% 94%
Pressure 29.34 in993.6 mb 28.96 in980.7 mb -
Precipitation 0.80 in20.3 mm - -
Hour Temp Dew Point Humidity Winds Wind Gusts Pressure Precip Precip Rate Daily Precip Total
12:44 AM 45.7°F7.6°C 44.6°F7.0°C 96% 1.0 mph E1.6 kmh E 6.0 mph9.7 kmh 29.34 in993.6 mb 0.13 in3.3 mm 0.18 in4.6 mm 0.10 in2.5 mm
01:44 AM 46.4°F8.0°C 45.3°F7.4°C 96% Calm Calm 4.0 mph6.4 kmh 29.30 in992.2 mb 0.07 in1.8 mm 0.00 in0.0 mm 0.17 in4.3 mm
02:44 AM 46.4°F8.0°C 45.3°F7.4°C 96% 1.0 mph ESE1.6 kmh ESE 7.0 mph11.3 kmh 29.25 in990.5 mb 0.14 in3.6 mm 0.00 in0.0 mm 0.31 in7.9 mm
03:44 AM 46.2°F7.9°C 45.1°F7.3°C 96% 2.0 mph S3.2 kmh S 10.0 mph16.1 kmh 29.21 in989.2 mb 0.07 in1.8 mm 0.00 in0.0 mm 0.39 in9.9 mm
04:44 AM 45.7°F7.6°C 44.6°F7.0°C 96% 2.0 mph SW3.2 kmh SW 7.0 mph11.3 kmh 29.19 in988.5 mb 0.05 in1.3 mm 0.00 in0.0 mm 0.44 in11.2 mm
05:44 AM 45.7°F7.6°C 44.6°F7.0°C 96% 2.0 mph SSW3.2 kmh SSW 9.0 mph14.5 kmh 29.16 in987.5 mb 0.02 in0.5 mm 0.00 in0.0 mm 0.46 in11.7 mm
06:44 AM 46.0°F7.8°C 45.0°F7.2°C 96% 2.0 mph S3.2 kmh S 9.0 mph14.5 kmh 29.13 in986.5 mb 0.00 in0.0 mm 0.00 in0.0 mm 0.46 in11.7 mm
07:44 AM 46.8°F8.2°C 45.7°F7.6°C 96% 2.0 mph SSW3.2 kmh SSW 9.0 mph14.5 kmh 29.12 in986.1 mb 0.00 in0.0 mm 0.00 in0.0 mm 0.46 in11.7 mm
08:44 AM 47.7°F8.7°C 46.6°F8.1°C 96% 1.0 mph S1.6 kmh S 6.0 mph9.7 kmh 29.10 in985.4 mb 0.00 in0.0 mm 0.00 in0.0 mm 0.46 in11.7 mm
09:44 AM 49.3°F9.6°C 48.0°F8.9°C 96% 2.0 mph S3.2 kmh S 8.0 mph12.9 kmh 29.09 in985.1 mb 0.00 in0.0 mm 0.00 in0.0 mm 0.46 in11.7 mm
10:44 AM 50.9°F10.5°C 49.5°F9.7°C 95% 2.0 mph SSW3.2 kmh SSW 8.0 mph12.9 kmh 29.07 in984.4 mb 0.00 in0.0 mm 0.00 in0.0 mm 0.46 in11.7 mm
11:45 AM 51.4°F10.8°C 49.8°F9.9°C 94% 1.0 mph S1.6 kmh S 8.0 mph12.9 kmh 29.06 in984.1 mb 0.02 in0.5 mm 1.20 in30.5 mm 0.48 in12.2 mm
12:44 PM 52.7°F11.5°C 50.7°F10.4°C 93% 3.0 mph S4.8 kmh S 9.0 mph14.5 kmh 29.03 in983.1 mb 0.01 in0.3 mm 0.00 in0.0 mm 0.49 in12.4 mm
01:44 PM 51.6°F10.9°C 49.6°F9.8°C 93% 4.0 mph S6.4 kmh S 10.0 mph16.1 kmh 29.00 in982.1 mb 0.05 in1.3 mm 0.00 in0.0 mm 0.54 in13.7 mm
02:44 PM 52.2°F11.2°C 49.8°F9.9°C 92% 3.0 mph S4.8 kmh S 12.0 mph19.3 kmh 28.99 in981.7 mb 0.01 in0.3 mm 0.00 in0.0 mm 0.54 in13.7 mm
03:44 PM 52.9°F11.6°C 50.0°F10.0°C 90% 3.0 mph S4.8 kmh S 8.0 mph12.9 kmh 28.97 in981.0 mb 0.00 in0.0 mm 0.00 in0.0 mm 0.54 in13.7 mm
04:44 PM 53.2°F11.8°C 48.6°F9.2°C 84% 3.0 mph S4.8 kmh S 9.0 mph14.5 kmh 28.96 in980.7 mb 0.00 in0.0 mm 0.00 in0.0 mm 0.54 in13.7 mm
05:44 PM 49.3°F9.6°C 47.5°F8.6°C 94% 2.0 mph WSW3.2 kmh WSW 6.0 mph9.7 kmh 28.97 in981.0 mb 0.13 in3.3 mm 0.00 in0.0 mm 0.68 in17.3 mm
06:44 PM 49.1°F9.5°C 47.7°F8.7°C 95% 1.0 mph SSW1.6 kmh SSW 7.0 mph11.3 kmh 28.98 in981.4 mb 0.04 in1.0 mm 0.00 in0.0 mm 0.72 in18.3 mm
07:44 PM 47.8°F8.8°C 46.8°F8.2°C 96% Calm Calm 2.0 mph3.2 kmh 28.97 in981.0 mb 0.07 in1.8 mm 0.00 in0.0 mm 0.79 in20.1 mm
08:44 PM 48.7°F9.3°C 47.7°F8.7°C 96% 1.0 mph SW1.6 kmh SW 7.0 mph11.3 kmh 28.96 in980.7 mb 0.02 in0.5 mm 0.00 in0.0 mm 0.80 in20.3 mm
09:44 PM 47.3°F8.5°C 44.8°F7.1°C 91% 4.0 mph WSW6.4 kmh WSW 9.0 mph14.5 kmh 28.97 in981.0 mb 0.00 in0.0 mm 0.00 in0.0 mm 0.80 in20.3 mm
10:44 PM 43.9°F6.6°C 41.0°F5.0°C 90% 2.0 mph SW3.2 kmh SW 8.0 mph12.9 kmh 28.99 in981.7 mb 0.00 in0.0 mm 0.00 in0.0 mm 0.80 in20.3 mm
11:44 PM 42.6°F5.9°C 39.9°F4.4°C 90% 1.0 mph WSW1.6 kmh WSW 3.0 mph4.8 kmh 29.02 in982.7 mb 0.00 in0.0 mm 0.00 in0.0 mm 0.80 in20.3 mm